Archival Weather

Snohomish County (Paine Fld)

Everett, Washington (KPAE)

Report from: Thursday, October 26, 2023 5:53 PM PDT
Current time: Friday, June 14, 2024 4:37 AM PDT

Current weather – Weather history – Daily summaries
Weather forecast

Temperature7.8°C (46.0°F)
Wind chill6.6°C (43.8°F)
Dew point1.1°C (34.0°F)
Winds 4 kts (2.1 m/s, 4.6 mph) North-Northwest (340°)
Visibility10 mi. (16.1 km)
Clouds Sky clear
Altimeter30.24 in.Hg (1024 mB)
Relative humidity63 %
Density altitude-1,145 ft. (-349 m)
Sea-level pressure102.5 kPa (1025 mB, 30.25 in.Hg)
Remarks Automated weather observing station with precipitation discriminator
Flight conditions Visual Meteorological Conditions
Raw dataKPAE 270053Z 34004KT 10SM CLR 08/01 A3024 RMK AO2 SLP245 T00780011
An error has occurred. This application may no longer respond until reloaded. Reload 🗙